Airfield :
LOGIN :

Register | Disclaimer

   EN    FR    IT 

 










Legend :    VFR   Marginal VFR   IFR   Intensive IFR   Very Intensive IFR
Visi :
Ceiling :
>= 8 km
>= 3000ft
5 to 8 km
1000 to 3000 ft
1500m to 5 km
500 to 1000 ft
800 to 1500m
200 to 500 ft
< 800m
< 200 ft
Symbols :   Thunderstorms  Fog  Heavy snow  Heavy precipitations  Wind > 20 kt
SIGMETs :     Misc.  Thunderstorms  Icing  Turbulence  Mountain Waves  Volcanic Ashes






- Airport Elevation : 255 ft


ENGC - Gullfaks C oil platform

CURRENT METAR :
  • 192050Z 17031KT 7000 BKN005 15/14 Q1012 W13/S4

EXPIRED METARs :
  • 192020Z 17034KT 7000 BKN005 15/14 Q1012 W12/S4
  • 191950Z 16033KT 7000 SCT005 BKN055 15/14 Q1012 W12/S4
  • 191920Z 16033KT 7000 SCT004 BKN040 15/14 Q1012 W12/S3
  • 191820Z 16029KT 2000 BR BKN003 15/14 Q1013 W13/S3
  • 191750Z 16028KT 4000 BR BKN004 15/14 Q1013 W13/S3
  • 191720Z 16028KT 5000 BR SCT004 BKN040 15/14 Q1013 W12/S3
  • 191650Z 17027KT 7000 FEW005 BKN040 15/14 Q1014 W12/S3
  • 191620Z 17028KT 3000 BR SCT004 BKN040 14/14 Q1014 W13/S3

TAF TAF ENGC
Valid from the 19 at 21:00 until the 20 at 21:00 UTC


192000Z 1921/2021 17030KT 6000 SCT006 BKN050
TEMPO 1921/2007 0800 FG VV003
TEMPO 2007/2012 2000 BR BKN004



MET'MAP, your aeronautical weather chart ! - Copyright ORBIFLY December 2007 - Disclaimer

ORBIFLY MET'MAP TEAM :

Programming & Development : Alexandra Zaïnal
Original concept : Baudouin d'Aumeries
Technical & hardware support : Manuel Goepfert
Assistance : Marc-Olivier Méhu




SOURCES & CREDITS :

   NOAA